createdAt,value
2023-01-17T06:41:12.304Z,4.14
2023-01-17T06:43:41.302Z,4.16
2023-01-17T06:46:12.474Z,4.17
2023-01-17T06:48:48.348Z,4.17
2023-01-17T06:51:43.812Z,4.17
2023-01-17T06:54:16.444Z,4.17
2023-01-17T06:56:50.768Z,4.17
2023-01-17T06:59:23.854Z,4.17
2023-01-17T07:01:54.832Z,4.16
2023-01-17T07:04:23.918Z,4.15
2023-01-17T07:06:54.736Z,4.15
2023-01-17T07:09:29.669Z,4.15
2023-01-17T07:12:26.937Z,4.16
2023-01-17T07:15:10.974Z,4.17
2023-01-17T07:18:36.710Z,4.17
2023-01-17T07:25:12.289Z,4.18
2023-01-17T07:27:39.707Z,4.18
2023-01-17T07:30:09.263Z,4.19
2023-01-17T07:32:39.097Z,4.22
2023-01-17T07:35:10.631Z,4.23
2023-01-17T07:37:48.608Z,4.23
2023-01-17T07:40:50.126Z,4.24
2023-01-17T07:43:29.931Z,4.26
2023-01-17T07:46:02.085Z,4.28
2023-01-17T07:48:39.114Z,4.27
2023-01-17T07:51:46.406Z,4.26
2023-01-17T07:54:21.068Z,4.25
2023-01-17T07:56:58.928Z,4.24
2023-01-17T07:59:31.424Z,4.24
2023-01-17T08:02:06.124Z,4.24
2023-01-17T08:04:34.763Z,4.25
2023-01-17T08:10:06.836Z,4.27
2023-01-17T08:12:37.481Z,4.29
2023-01-17T08:15:16.740Z,4.31
2023-01-17T08:17:51.884Z,4.32
2023-01-17T08:21:34.870Z,4.36
2023-01-17T08:24:04.948Z,4.36
2023-01-17T08:26:58.110Z,4.38
2023-01-17T08:29:47.878Z,4.37
2023-01-17T08:33:08.749Z,4.36
2023-01-17T08:35:38.373Z,4.36
2023-01-17T08:38:11.087Z,4.37
2023-01-17T08:41:08.998Z,4.38
2023-01-17T08:43:39.636Z,4.40
2023-01-17T08:49:23.498Z,4.39
2023-01-17T08:58:55.693Z,4.42
2023-01-17T09:01:42.192Z,4.43
2023-01-17T09:05:03.204Z,4.45
2023-01-17T09:08:52.703Z,4.47
2023-01-17T09:11:31.339Z,4.50
2023-01-17T09:13:59.144Z,4.51
2023-01-17T09:16:32.320Z,4.53
2023-01-17T09:19:09.591Z,4.56
2023-01-17T09:21:42.221Z,4.57
2023-01-17T09:24:14.080Z,4.56
2023-01-17T09:33:02.051Z,4.57
2023-01-17T09:35:36.564Z,4.56
2023-01-17T09:38:24.481Z,4.56
2023-01-17T09:41:10.750Z,4.58
2023-01-17T09:43:46.945Z,4.60
2023-01-17T09:46:38.094Z,4.61
2023-01-17T09:49:16.492Z,4.64
2023-01-17T09:52:01.656Z,4.67
2023-01-17T09:54:44.982Z,4.68
2023-01-17T09:57:43.147Z,4.68
2023-01-17T10:00:46.370Z,4.68
2023-01-17T10:03:36.335Z,4.69
2023-01-17T10:07:01.778Z,4.71
2023-01-17T10:10:00.434Z,4.71
2023-01-17T10:13:14.410Z,4.71
2023-01-17T10:16:30.353Z,4.72
2023-01-17T10:19:34.908Z,4.73
2023-01-17T10:22:12.913Z,4.74
2023-01-17T10:25:22.650Z,4.76
2023-01-17T10:27:58.731Z,4.77
2023-01-17T10:30:34.127Z,4.77
2023-01-17T10:33:24.420Z,4.80
2023-01-17T10:36:12.388Z,4.83
2023-01-17T10:38:41.722Z,4.85
2023-01-17T10:41:38.106Z,4.86
2023-01-17T10:44:21.059Z,4.86
2023-01-17T10:47:31.581Z,4.87
2023-01-17T10:50:02.538Z,4.90
2023-01-17T10:52:38.832Z,4.90
2023-01-17T10:55:40.007Z,4.93
2023-01-17T10:58:12.256Z,4.95
2023-01-17T11:00:47.457Z,4.95
2023-01-17T11:03:17.359Z,4.94
2023-01-17T11:05:45.225Z,4.95
2023-01-17T11:08:13.715Z,4.95
2023-01-17T11:10:49.291Z,4.96
2023-01-17T11:13:34.317Z,4.97
2023-01-17T11:16:09.015Z,5.00
2023-01-17T11:18:39.377Z,5.01
2023-01-17T11:21:13.124Z,5.00
2023-01-17T16:00:38.416Z,5.58
2023-01-17T16:03:24.259Z,5.80
2023-01-17T16:05:52.615Z,5.85
2023-01-17T16:08:25.046Z,5.89
2023-01-17T16:10:59.252Z,5.92
2023-01-17T16:13:26.246Z,5.94
2023-01-17T16:15:53.195Z,5.96
2023-01-17T16:18:24.272Z,5.98
2023-01-17T16:20:59.775Z,5.99
2023-01-17T16:23:27.256Z,6.00
2023-01-17T16:25:54.097Z,6.01
2023-01-17T16:28:21.241Z,6.02
2023-01-17T16:30:49.148Z,6.02
2023-01-17T16:33:16.153Z,6.04
2023-01-17T16:35:44.286Z,6.04
2023-01-17T16:38:12.823Z,6.05
2023-01-17T16:40:47.553Z,6.05
2023-01-17T16:43:16.029Z,6.06
2023-01-17T16:45:45.744Z,6.07
2023-01-17T16:48:12.707Z,6.07
2023-01-17T16:50:48.285Z,6.09
2023-01-17T16:53:15.571Z,6.11
2023-01-17T16:55:42.611Z,6.12
2023-01-17T16:58:09.492Z,6.15
2023-01-17T17:06:45.923Z,6.24
2023-01-17T17:09:13.973Z,6.25
2023-01-17T17:11:41.399Z,6.26
2023-01-17T17:14:08.872Z,6.28
2023-01-17T17:16:36.445Z,6.30
2023-01-17T17:19:05.051Z,6.32
2023-01-17T17:21:35.120Z,6.34
2023-01-17T17:24:02.788Z,6.35
2023-01-17T17:26:31.461Z,6.37
2023-01-17T17:28:58.042Z,6.39
2023-01-17T17:31:24.785Z,6.41
2023-01-17T17:33:51.766Z,6.43
2023-01-17T17:36:18.590Z,6.45
2023-01-17T17:38:51.246Z,6.46
2023-01-17T17:41:19.865Z,6.47
2023-01-17T17:43:46.799Z,6.48
